GLD166 SBLJ-SSBL

Flight info

Callsign GLD166
Flight time 0h 46m
Altitude 5500
Route 2722S04956W 2710S04929W
Aircraft C172/M-SDFGIRY/S

Departure

Time 2026-05-03 20:42
Airport Lages Airport (SBLJ)

Arrival

Time 2026-05-03 21:29
Airport Blumenau Airport (SSBL)
Time Latitude Longitude Altitude Speed Heading
2026-05-03 20:26 -27.78204 -50.27977 3047 ft 0 kts 326°
2026-05-03 20:35 -27.78204 -50.27994 3047 ft 8 kts 231°
2026-05-03 20:35 -27.78230 -50.28014 3048 ft 0 kts 217°
2026-05-03 20:36 -27.78232 -50.28015 3048 ft 2 kts 218°
2026-05-03 20:36 -27.78276 -50.28079 3049 ft 17 kts 206°
2026-05-03 20:36 -27.78422 -50.28003 3054 ft 30 kts 144°
2026-05-03 20:36 -27.78566 -50.27890 3058 ft 3 kts 330°
2026-05-03 20:37 -27.78565 -50.27891 3058 ft 0 kts 307°
2026-05-03 20:40 -27.78449 -50.27985 3055 ft 41 kts 328°
2026-05-03 20:41 -27.78146 -50.28184 3082 ft 56 kts 328°
2026-05-03 20:41 -27.77821 -50.28422 3179 ft 55 kts 322°
2026-05-03 20:41 -27.77489 -50.28721 3274 ft 61 kts 315°
2026-05-03 20:41 -27.77090 -50.29023 3318 ft 78 kts 333°
2026-05-03 20:42 -27.76560 -50.28963 3362 ft 91 kts 50°
2026-05-03 20:42 -27.76318 -50.28282 3455 ft 95 kts 72°
2026-05-03 20:42 -27.76151 -50.27564 3590 ft 95 kts 66°
2026-05-03 20:42 -27.75847 -50.26880 3718 ft 99 kts 59°
2026-05-03 20:43 -27.75461 -50.26220 3848 ft 102 kts 49°
2026-05-03 20:43 -27.74988 -50.25607 3981 ft 106 kts 46°
2026-05-03 20:43 -27.74477 -50.24987 4113 ft 110 kts 46°
2026-05-03 20:43 -27.73954 -50.24358 4241 ft 109 kts 45°
2026-05-03 20:44 -27.73401 -50.23754 4354 ft 111 kts 43°
2026-05-03 20:44 -27.72829 -50.23130 4444 ft 119 kts 43°
2026-05-03 20:44 -27.72220 -50.22468 4526 ft 122 kts 43°
2026-05-03 20:44 -27.71609 -50.21798 4599 ft 122 kts 43°
2026-05-03 20:45 -27.71004 -50.21140 4683 ft 122 kts 43°
2026-05-03 20:45 -27.70391 -50.20482 4749 ft 122 kts 43°
2026-05-03 20:45 -27.69785 -50.19826 4835 ft 121 kts 43°
2026-05-03 20:45 -27.69176 -50.19167 4907 ft 123 kts 42°
2026-05-03 20:46 -27.68559 -50.18508 5015 ft 120 kts 40°
2026-05-03 20:46 -27.67903 -50.17939 5083 ft 121 kts 36°
2026-05-03 20:46 -27.67209 -50.17354 5092 ft 128 kts 36°
2026-05-03 20:46 -27.66486 -50.16746 5102 ft 132 kts 35°
2026-05-03 20:47 -27.65742 -50.16118 5095 ft 134 kts 36°
2026-05-03 20:47 -27.64998 -50.15494 5097 ft 131 kts 36°
2026-05-03 20:47 -27.64264 -50.14881 5098 ft 132 kts 36°
2026-05-03 20:47 -27.63533 -50.14263 5102 ft 132 kts 36°
2026-05-03 20:48 -27.62798 -50.13646 5097 ft 131 kts 36°
2026-05-03 20:48 -27.62069 -50.13031 5100 ft 133 kts 36°
2026-05-03 20:48 -27.61346 -50.12425 5160 ft 127 kts 36°
2026-05-03 20:48 -27.60657 -50.11846 5252 ft 121 kts 36°
2026-05-03 20:49 -27.59992 -50.11287 5361 ft 119 kts 36°
2026-05-03 20:49 -27.59315 -50.10719 5451 ft 125 kts 36°
2026-05-03 20:49 -27.58598 -50.10121 5443 ft 129 kts 35°
2026-05-03 20:49 -27.57878 -50.09516 5455 ft 131 kts 37°
2026-05-03 20:50 -27.57140 -50.08902 5450 ft 132 kts 36°
2026-05-03 20:50 -27.56407 -50.08292 5447 ft 131 kts 36°
2026-05-03 20:50 -27.55681 -50.07687 5447 ft 130 kts 36°
2026-05-03 20:50 -27.54967 -50.07090 5447 ft 128 kts 36°
2026-05-03 20:51 -27.54251 -50.06492 5446 ft 129 kts 36°
2026-05-03 20:51 -27.53528 -50.05881 5446 ft 131 kts 36°
2026-05-03 20:51 -27.52790 -50.05265 5449 ft 132 kts 35°
2026-05-03 20:51 -27.52060 -50.04657 5448 ft 129 kts 36°
2026-05-03 20:52 -27.51341 -50.04057 5447 ft 128 kts 36°
2026-05-03 20:52 -27.50606 -50.03444 5447 ft 133 kts 36°
2026-05-03 20:52 -27.49871 -50.02832 5448 ft 130 kts 36°
2026-05-03 20:52 -27.49145 -50.02228 5454 ft 129 kts 36°
2026-05-03 20:53 -27.48404 -50.01612 5456 ft 135 kts 35°
2026-05-03 20:53 -27.47655 -50.00988 5451 ft 132 kts 36°
2026-05-03 20:53 -27.46924 -50.00380 5449 ft 129 kts 36°
2026-05-03 20:53 -27.46196 -49.99773 5459 ft 132 kts 35°
2026-05-03 20:54 -27.45698 -49.99360 5464 ft 136 kts 36°
2026-05-03 20:54 -27.43930 -49.97895 5452 ft 131 kts 36°
2026-05-03 20:54 -27.43211 -49.97299 5450 ft 129 kts 35°
2026-05-03 20:55 -27.42489 -49.96699 5448 ft 130 kts 35°
2026-05-03 20:55 -27.41762 -49.96097 5450 ft 129 kts 35°
2026-05-03 20:55 -27.41041 -49.95499 5448 ft 128 kts 36°
2026-05-03 20:55 -27.40326 -49.94905 5447 ft 127 kts 36°
2026-05-03 20:56 -27.39611 -49.94312 5446 ft 127 kts 35°
2026-05-03 20:56 -27.39137 -49.93920 5453 ft 128 kts 35°
2026-05-03 20:56 -27.38406 -49.93316 5457 ft 132 kts 35°
2026-05-03 20:56 -27.37673 -49.92710 5449 ft 130 kts 36°
2026-05-03 20:57 -27.36951 -49.92112 5449 ft 128 kts 35°
2026-05-03 20:57 -27.36233 -49.91518 5447 ft 128 kts 35°
2026-05-03 20:57 -27.35513 -49.90925 5455 ft 129 kts 35°
2026-05-03 20:57 -27.34781 -49.90319 5450 ft 131 kts 35°
2026-05-03 20:58 -27.34054 -49.89720 5454 ft 129 kts 36°
2026-05-03 20:58 -27.33332 -49.89124 5449 ft 128 kts 35°
2026-05-03 20:58 -27.32608 -49.88528 5449 ft 129 kts 35°
2026-05-03 20:58 -27.31880 -49.87928 5455 ft 131 kts 36°
2026-05-03 20:59 -27.31149 -49.87324 5450 ft 129 kts 35°
2026-05-03 20:59 -27.30426 -49.86729 5455 ft 129 kts 36°
2026-05-03 20:59 -27.29701 -49.86135 5452 ft 131 kts 35°
2026-05-03 20:59 -27.28967 -49.85531 5451 ft 130 kts 35°
2026-05-03 21:00 -27.28240 -49.84934 5455 ft 130 kts 35°
2026-05-03 21:00 -27.27745 -49.84529 5456 ft 130 kts 36°
2026-05-03 21:00 -27.26772 -49.83732 5452 ft 130 kts 35°
2026-05-03 21:00 -27.26040 -49.83128 5450 ft 130 kts 36°
2026-05-03 21:01 -27.25312 -49.82531 5451 ft 129 kts 35°
2026-05-03 21:01 -27.24584 -49.81934 5451 ft 130 kts 35°
2026-05-03 21:01 -27.23853 -49.81333 5450 ft 130 kts 35°
2026-05-03 21:01 -27.23122 -49.80735 5450 ft 129 kts 35°
2026-05-03 21:02 -27.22395 -49.80140 5452 ft 130 kts 35°
2026-05-03 21:02 -27.21665 -49.79542 5457 ft 130 kts 35°
2026-05-03 21:02 -27.20932 -49.78943 5450 ft 129 kts 35°
2026-05-03 21:02 -27.20208 -49.78350 5455 ft 129 kts 35°
2026-05-03 21:03 -27.19474 -49.77750 5454 ft 131 kts 35°
2026-05-03 21:03 -27.18740 -49.77150 5450 ft 130 kts 35°
2026-05-03 21:03 -27.18015 -49.76559 5449 ft 128 kts 35°
2026-05-03 21:03 -27.17293 -49.75968 5457 ft 130 kts 36°
2026-05-03 21:04 -27.16558 -49.75372 5449 ft 129 kts 35°
2026-05-03 21:04 -27.15840 -49.74788 5452 ft 129 kts 36°
2026-05-03 21:04 -27.15101 -49.74186 5450 ft 132 kts 35°
2026-05-03 21:04 -27.14363 -49.73585 5450 ft 130 kts 35°
2026-05-03 21:05 -27.13636 -49.72992 5458 ft 129 kts 33°
2026-05-03 21:05 -27.12895 -49.72387 5451 ft 131 kts 35°
2026-05-03 21:05 -27.12299 -49.71655 5442 ft 131 kts 68°
2026-05-03 21:05 -27.12001 -49.70688 5452 ft 131 kts 70°
2026-05-03 21:06 -27.11694 -49.69709 5448 ft 133 kts 70°
2026-05-03 21:06 -27.11388 -49.68738 5455 ft 132 kts 70°
2026-05-03 21:06 -27.11082 -49.67771 5446 ft 130 kts 70°
2026-05-03 21:06 -27.10780 -49.66813 5444 ft 130 kts 70°
2026-05-03 21:07 -27.10474 -49.65850 5451 ft 133 kts 70°
2026-05-03 21:07 -27.10165 -49.64883 5445 ft 130 kts 70°
2026-05-03 21:07 -27.09863 -49.63929 5446 ft 130 kts 70°
2026-05-03 21:07 -27.09562 -49.62977 5445 ft 129 kts 70°
2026-05-03 21:08 -27.09263 -49.62030 5443 ft 128 kts 70°
2026-05-03 21:08 -27.08965 -49.61089 5442 ft 128 kts 70°
2026-05-03 21:08 -27.08665 -49.60145 5442 ft 128 kts 70°
2026-05-03 21:08 -27.08361 -49.59190 5442 ft 131 kts 70°
2026-05-03 21:09 -27.08057 -49.58233 5444 ft 130 kts 70°
2026-05-03 21:09 -27.07755 -49.57281 5442 ft 129 kts 70°
2026-05-03 21:09 -27.07454 -49.56335 5450 ft 129 kts 70°
2026-05-03 21:09 -27.07152 -49.55385 5443 ft 129 kts 70°
2026-05-03 21:10 -27.06849 -49.54436 5443 ft 129 kts 70°
2026-05-03 21:10 -27.06546 -49.53484 5445 ft 130 kts 70°
2026-05-03 21:10 -27.06239 -49.52526 5449 ft 130 kts 70°
2026-05-03 21:10 -27.05936 -49.51573 5448 ft 133 kts 70°
2026-05-03 21:11 -27.05626 -49.50600 5448 ft 132 kts 70°
2026-05-03 21:11 -27.05317 -49.49634 5447 ft 131 kts 70°
2026-05-03 21:11 -27.05008 -49.48670 5449 ft 132 kts 70°
2026-05-03 21:11 -27.04693 -49.47690 5446 ft 132 kts 70°
2026-05-03 21:12 -27.04385 -49.46728 5446 ft 130 kts 70°
2026-05-03 21:12 -27.04065 -49.45777 5445 ft 130 kts 66°
2026-05-03 21:12 -27.03694 -49.44856 5444 ft 129 kts 65°
2026-05-03 21:12 -27.03320 -49.43943 5444 ft 129 kts 65°
2026-05-03 21:13 -27.02947 -49.43032 5442 ft 128 kts 65°
2026-05-03 21:13 -27.02574 -49.42122 5442 ft 128 kts 65°
2026-05-03 21:13 -27.02206 -49.41226 5442 ft 128 kts 65°
2026-05-03 21:13 -27.01827 -49.40305 5442 ft 128 kts 65°
2026-05-03 21:14 -27.01449 -49.39412 5442 ft 128 kts 61°
2026-05-03 21:14 -27.01009 -49.38541 5442 ft 128 kts 59°
2026-05-03 21:14 -27.00553 -49.37679 5446 ft 129 kts 57°
2026-05-03 21:14 -27.00075 -49.36815 5444 ft 130 kts 57°
2026-05-03 21:15 -26.99557 -49.35988 5444 ft 129 kts 52°
2026-05-03 21:15 -26.99023 -49.35183 5444 ft 129 kts 52°
2026-05-03 21:15 -26.98488 -49.34378 5444 ft 129 kts 52°
2026-05-03 21:15 -26.97953 -49.33572 5447 ft 129 kts 53°
2026-05-03 21:16 -26.97418 -49.32767 5443 ft 128 kts 52°
2026-05-03 21:16 -26.96884 -49.31965 5449 ft 129 kts 52°
2026-05-03 21:16 -26.96342 -49.31149 5446 ft 131 kts 52°
2026-05-03 21:16 -26.95797 -49.30330 5446 ft 130 kts 52°
2026-05-03 21:17 -26.95252 -49.29513 5404 ft 134 kts 52°
2026-05-03 21:17 -26.94875 -49.28949 5313 ft 139 kts 52°
2026-05-03 21:17 -26.94087 -49.27766 5121 ft 143 kts 52°
2026-05-03 21:17 -26.93487 -49.26869 4976 ft 144 kts 52°
2026-05-03 21:18 -26.92886 -49.25970 4823 ft 144 kts 52°
2026-05-03 21:18 -26.92301 -49.25093 4584 ft 129 kts 53°
2026-05-03 21:18 -26.91800 -49.24346 4319 ft 112 kts 52°
2026-05-03 21:18 -26.91352 -49.23678 4053 ft 104 kts 53°
2026-05-03 21:19 -26.90917 -49.23033 3787 ft 102 kts 52°
2026-05-03 21:19 -26.90498 -49.22407 3536 ft 99 kts 52°
2026-05-03 21:19 -26.90081 -49.21782 3274 ft 99 kts 52°
2026-05-03 21:19 -26.89674 -49.21176 3037 ft 94 kts 52°
2026-05-03 21:20 -26.89295 -49.20608 3035 ft 92 kts 52°
2026-05-03 21:20 -26.88933 -49.19988 3001 ft 101 kts 59°
2026-05-03 21:20 -26.88566 -49.19296 2936 ft 108 kts 58°
2026-05-03 21:20 -26.88178 -49.18569 2874 ft 110 kts 58°
2026-05-03 21:21 -26.87781 -49.17824 2805 ft 112 kts 58°
2026-05-03 21:21 -26.87376 -49.17064 2734 ft 114 kts 58°
2026-05-03 21:21 -26.86974 -49.16314 2659 ft 105 kts 59°
2026-05-03 21:21 -26.86723 -49.15614 2592 ft 92 kts 70°
2026-05-03 21:22 -26.86525 -49.14968 2566 ft 84 kts 71°
2026-05-03 21:22 -26.86347 -49.14388 2537 ft 73 kts 70°
2026-05-03 21:22 -26.86191 -49.13879 2509 ft 65 kts 70°
2026-05-03 21:22 -26.86040 -49.13387 2482 ft 66 kts 69°
2026-05-03 21:23 -26.85887 -49.12880 2499 ft 73 kts 70°
2026-05-03 21:23 -26.85703 -49.12282 2529 ft 88 kts 71°
2026-05-03 21:23 -26.85498 -49.11612 2563 ft 94 kts 71°
2026-05-03 21:23 -26.85276 -49.10892 2578 ft 100 kts 70°
2026-05-03 21:24 -26.85045 -49.10148 2584 ft 103 kts 70°
2026-05-03 21:24 -26.84786 -49.09302 2468 ft 127 kts 71°
2026-05-03 21:24 -26.84473 -49.08308 2325 ft 141 kts 67°
2026-05-03 21:24 -26.83763 -49.07609 2145 ft 142 kts 11°
2026-05-03 21:25 -26.82794 -49.07697 1975 ft 141 kts
2026-05-03 21:25 -26.81857 -49.07383 1904 ft 138 kts 19°
2026-05-03 21:25 -26.80969 -49.07037 1879 ft 124 kts 19°
2026-05-03 21:25 -26.80266 -49.06767 1799 ft 93 kts 12°
2026-05-03 21:26 -26.79686 -49.06802 1768 ft 81 kts 349°
2026-05-03 21:26 -26.79198 -49.07124 1766 ft 83 kts 324°
2026-05-03 21:26 -26.78960 -49.07670 1767 ft 81 kts 281°
2026-05-03 21:26 -26.78823 -49.08287 1767 ft 82 kts 283°
2026-05-03 21:27 -26.78695 -49.08913 1769 ft 82 kts 272°
2026-05-03 21:27 -26.78925 -49.09478 1764 ft 82 kts 243°
2026-05-03 21:27 -26.79287 -49.09948 1648 ft 77 kts 204°
2026-05-03 21:27 -26.79766 -49.10184 1468 ft 75 kts 205°
2026-05-03 21:28 -26.80277 -49.10211 1272 ft 73 kts 172°
2026-05-03 21:28 -26.80750 -49.10052 1085 ft 70 kts 159°
2026-05-03 21:28 -26.81207 -49.09834 848 ft 76 kts 158°
2026-05-03 21:28 -26.81785 -49.09688 375 ft 96 kts 175°
2026-05-03 21:29 -26.82339 -49.09569 204 ft 72 kts 165°
2026-05-03 21:29 -26.82806 -49.09450 67 ft 60 kts 169°
2026-05-03 21:29 -26.83161 -49.09371 60 ft 45 kts 162°
2026-05-03 21:29 -26.83273 -49.09359 60 ft 0 kts 280°
2026-05-03 21:30 -26.83270 -49.09383 63 ft 6 kts 276°
2026-05-03 21:30 -26.83292 -49.09418 59 ft 0 kts 183°
2026-05-03 21:31 -26.83326 -49.09418 59 ft 7 kts 179°
2026-05-03 21:31 -26.83363 -49.09418 59 ft 4 kts 181°